createdAt,value
2019-04-21T00:00:07.194Z,0.00
2019-04-21T00:01:05.725Z,0.00
2019-04-21T00:02:03.278Z,0.00
2019-04-21T00:03:07.448Z,0.00
2019-04-21T00:04:12.323Z,0.00
2019-04-21T00:05:24.689Z,0.00
2019-04-21T00:06:25.081Z,0.00
2019-04-21T00:07:19.264Z,0.00
2019-04-21T00:08:37.550Z,0.00
2019-04-21T00:09:27.821Z,0.00
2019-04-21T00:10:27.194Z,0.00
2019-04-21T00:11:22.428Z,0.00
2019-04-21T00:12:18.188Z,0.00
2019-04-21T00:13:21.874Z,0.00
2019-04-21T00:14:14.764Z,0.00
2019-04-21T00:15:15.714Z,0.00
2019-04-21T00:16:06.799Z,0.00
2019-04-21T00:17:07.892Z,0.00
2019-04-21T00:18:05.921Z,0.00
2019-04-21T00:19:09.101Z,0.00
2019-04-21T00:20:12.464Z,0.00
2019-04-21T00:21:10.983Z,0.00
2019-04-21T00:22:14.923Z,0.00
2019-04-21T00:23:19.846Z,0.00
2019-04-21T00:24:18.501Z,0.00
2019-04-21T00:25:18.126Z,0.00
2019-04-21T00:26:22.654Z,0.00
2019-04-21T00:27:23.266Z,0.00
2019-04-21T00:28:25.194Z,0.00
2019-04-21T00:29:27.589Z,0.00
2019-04-21T00:30:21.775Z,0.00
2019-04-21T00:31:22.681Z,0.00
2019-04-21T00:32:19.505Z,0.00
2019-04-21T00:33:09.114Z,0.00
2019-04-21T00:34:02.603Z,0.00
2019-04-21T00:35:06.376Z,0.00
2019-04-21T00:36:11.272Z,0.00
2019-04-21T00:37:12.082Z,0.00
2019-04-21T00:38:24.994Z,0.00
2019-04-21T00:39:30.191Z,0.00
2019-04-21T00:40:24.001Z,0.00
2019-04-21T00:41:26.092Z,0.00
2019-04-21T00:42:18.411Z,0.00
2019-04-21T00:43:19.708Z,0.00
2019-04-21T00:44:16.472Z,0.00
2019-04-21T00:45:16.769Z,0.00
2019-04-21T00:46:11.428Z,0.00
2019-04-21T00:47:25.259Z,0.00
2019-04-21T00:48:23.603Z,0.00
2019-04-21T00:49:15.503Z,0.00
2019-04-21T00:50:25.115Z,0.00
2019-04-21T00:51:33.252Z,0.00
2019-04-21T00:52:39.673Z,0.00
2019-04-21T00:53:33.433Z,0.00
2019-04-21T00:54:24.633Z,0.00
2019-04-21T00:55:35.524Z,0.00
2019-04-21T00:56:30.418Z,0.00
2019-04-21T00:57:29.373Z,0.00
2019-04-21T00:58:29.971Z,0.00
2019-04-21T00:59:25.865Z,0.00
2019-04-21T01:00:22.222Z,0.00
2019-04-21T01:01:23.458Z,0.00
2019-04-21T01:02:26.441Z,0.00
2019-04-21T01:03:28.216Z,0.00
2019-04-21T01:04:23.507Z,0.00
2019-04-21T01:05:21.176Z,0.00
2019-04-21T01:06:22.381Z,0.00
2019-04-21T01:07:22.011Z,0.00
2019-04-21T01:08:23.150Z,0.00
2019-04-21T01:09:19.709Z,0.00
2019-04-21T01:10:15.012Z,0.00
2019-04-21T01:11:23.898Z,0.00
2019-04-21T01:12:19.039Z,0.00
2019-04-21T01:13:27.951Z,0.00
2019-04-21T01:14:32.266Z,0.00
2019-04-21T01:15:35.244Z,0.00
2019-04-21T01:16:29.940Z,0.00
2019-04-21T01:17:21.776Z,0.00
2019-04-21T01:18:20.534Z,0.00
2019-04-21T01:19:23.183Z,0.00
2019-04-21T01:20:16.211Z,0.00
2019-04-21T01:21:13.367Z,0.00
2019-04-21T01:22:01.232Z,0.00
2019-04-21T01:23:00.341Z,0.00
2019-04-21T01:24:07.941Z,0.00
2019-04-21T01:25:08.957Z,0.00
2019-04-21T01:26:16.741Z,0.00
2019-04-21T01:27:11.232Z,0.00
2019-04-21T01:28:18.839Z,0.00
2019-04-21T01:29:15.786Z,0.00
2019-04-21T01:30:22.238Z,0.00
2019-04-21T01:31:17.076Z,0.00
2019-04-21T01:32:27.930Z,0.00
2019-04-21T01:33:26.067Z,0.00
2019-04-21T01:34:23.379Z,0.00
2019-04-21T01:35:20.672Z,0.00
2019-04-21T01:36:18.133Z,0.00
2019-04-21T01:37:21.047Z,0.00
2019-04-21T01:38:22.645Z,0.00
2019-04-21T01:39:29.398Z,0.00
2019-04-21T01:40:44.978Z,0.00
2019-04-21T01:41:28.086Z,0.00
2019-04-21T01:42:23.872Z,0.00
2019-04-21T01:43:18.602Z,0.00
2019-04-21T01:44:25.056Z,0.00
2019-04-21T01:45:22.398Z,0.00
2019-04-21T01:46:22.527Z,0.00
2019-04-21T01:47:16.160Z,0.00
2019-04-21T01:48:15.858Z,0.00
2019-04-21T01:49:13.065Z,0.00
2019-04-21T01:50:20.334Z,0.00
2019-04-21T01:51:15.058Z,0.00
2019-04-21T01:52:24.043Z,0.00
2019-04-21T01:53:28.310Z,0.00
2019-04-21T01:54:26.934Z,0.00
2019-04-21T01:55:26.366Z,0.00
2019-04-21T01:56:19.662Z,0.00
2019-04-21T01:57:17.553Z,0.00
2019-04-21T01:58:16.585Z,0.00
2019-04-21T01:59:08.990Z,0.00
2019-04-21T02:00:12.286Z,0.00
2019-04-21T02:01:21.609Z,0.00
2019-04-21T02:02:26.628Z,0.00
2019-04-21T02:03:42.869Z,0.00
2019-04-21T02:04:24.268Z,0.00
2019-04-21T02:05:25.854Z,0.00
2019-04-21T02:06:21.280Z,0.00
2019-04-21T02:07:25.007Z,0.00
2019-04-21T02:08:15.451Z,0.00
2019-04-21T02:09:22.934Z,0.00
2019-04-21T02:10:26.918Z,0.00
2019-04-21T02:11:24.456Z,0.00
2019-04-21T02:12:26.575Z,0.00
2019-04-21T02:13:16.894Z,0.00
2019-04-21T02:14:23.686Z,0.00
2019-04-21T02:15:23.929Z,0.00
2019-04-21T02:16:23.080Z,0.00
2019-04-21T02:17:23.583Z,0.00
2019-04-21T02:18:22.665Z,0.00
2019-04-21T02:19:16.682Z,0.00
2019-04-21T02:20:15.500Z,0.00
2019-04-21T02:21:17.844Z,0.00
2019-04-21T02:22:26.442Z,0.00
2019-04-21T02:23:35.053Z,0.00
2019-04-21T02:24:31.185Z,0.00
2019-04-21T02:25:20.103Z,0.00
2019-04-21T02:26:23.088Z,0.00
2019-04-21T02:27:24.593Z,0.00
2019-04-21T02:28:33.560Z,0.00
2019-04-21T02:29:31.142Z,0.00
2019-04-21T02:30:35.640Z,0.00
2019-04-21T02:32:35.316Z,0.00
2019-04-21T02:33:40.961Z,0.00
2019-04-21T02:34:32.252Z,0.00
2019-04-21T02:36:44.814Z,0.00
2019-04-21T02:39:29.748Z,0.00
2019-04-21T02:40:47.835Z,0.00
2019-04-21T02:41:34.632Z,0.00
2019-04-21T02:42:39.434Z,0.00
2019-04-21T02:43:26.637Z,0.00
2019-04-21T02:44:39.268Z,0.00
2019-04-21T02:45:34.277Z,0.00
2019-04-21T02:46:40.079Z,0.00
2019-04-21T02:50:31.725Z,0.00
2019-04-21T02:51:36.997Z,0.00
2019-04-21T02:52:35.548Z,0.00
2019-04-21T02:56:35.753Z,0.00
2019-04-21T02:57:35.594Z,0.00
2019-04-21T02:58:37.745Z,0.00
2019-04-21T02:59:33.101Z,0.00
2019-04-21T03:00:32.238Z,0.00
2019-04-21T03:01:44.220Z,0.00
2019-04-21T03:03:36.340Z,0.00
2019-04-21T03:04:34.922Z,0.00
2019-04-21T03:05:43.289Z,0.00
2019-04-21T03:06:32.381Z,0.00
2019-04-21T03:07:34.600Z,0.00
2019-04-21T03:08:44.810Z,0.00
2019-04-21T03:10:38.116Z,0.00
2019-04-21T03:11:52.782Z,0.00
2019-04-21T03:12:32.185Z,0.00
2019-04-21T03:15:39.556Z,0.00
2019-04-21T03:18:36.403Z,0.00
2019-04-21T03:19:37.999Z,0.00
2019-04-21T03:20:36.826Z,0.00
2019-04-21T03:21:29.119Z,0.00
2019-04-21T03:22:31.566Z,0.00
2019-04-21T03:23:41.689Z,0.00
2019-04-21T03:24:52.617Z,0.00
2019-04-21T03:28:43.571Z,0.00
2019-04-21T03:30:59.552Z,0.00
2019-04-21T03:31:50.910Z,0.00
2019-04-21T03:34:57.387Z,0.00
2019-04-21T03:36:47.672Z,0.00
2019-04-21T03:37:35.369Z,0.00
2019-04-21T03:38:39.397Z,0.00
2019-04-21T03:39:30.919Z,0.00
2019-04-21T03:40:28.679Z,0.00
2019-04-21T03:41:31.799Z,0.00
2019-04-21T03:42:34.817Z,0.00
2019-04-21T03:43:28.460Z,0.00
2019-04-21T03:44:32.286Z,0.00
2019-04-21T03:45:39.274Z,0.00
2019-04-21T03:46:32.752Z,0.00
2019-04-21T03:47:32.660Z,0.00
2019-04-21T03:50:56.243Z,0.00
2019-04-21T03:51:29.559Z,4.00
2019-04-21T03:54:37.610Z,0.00
2019-04-21T03:57:46.348Z,4.00
2019-04-21T03:58:47.379Z,4.00
2019-04-21T03:59:24.940Z,4.00
2019-04-21T04:01:32.748Z,8.00
2019-04-21T04:02:35.125Z,8.00
2019-04-21T04:04:35.611Z,8.00
2019-04-21T04:05:34.615Z,12.00
2019-04-21T04:06:24.552Z,12.00
2019-04-21T04:07:47.169Z,12.00
2019-04-21T04:08:43.924Z,16.00
2019-04-21T04:10:58.928Z,24.00
2019-04-21T04:12:32.134Z,32.00
2019-04-21T04:13:44.914Z,36.00
2019-04-21T04:14:33.450Z,44.00
2019-04-21T04:15:45.343Z,52.00
2019-04-21T04:16:28.781Z,64.00
2019-04-21T04:17:28.779Z,80.00
2019-04-21T04:18:39.275Z,92.00
2019-04-21T04:19:33.040Z,108.00
2019-04-21T04:20:28.286Z,132.00
2019-04-21T04:21:44.234Z,152.00
2019-04-21T04:22:41.142Z,180.00
2019-04-21T04:23:37.474Z,208.00
2019-04-21T04:24:31.642Z,244.00
2019-04-21T04:26:33.493Z,312.00
2019-04-21T04:27:47.790Z,352.00
2019-04-21T04:28:40.249Z,388.00
2019-04-21T04:29:24.557Z,436.00
2019-04-21T04:30:35.732Z,484.00
2019-04-21T04:32:28.669Z,584.00
2019-04-21T04:33:41.775Z,636.00
2019-04-21T04:34:37.813Z,688.00
2019-04-21T04:35:40.541Z,600.00
2019-04-21T04:37:32.824Z,684.00
2019-04-21T04:38:32.222Z,728.00
2019-04-21T04:40:51.724Z,800.00
2019-04-21T04:41:36.883Z,832.00
2019-04-21T04:42:45.684Z,880.00
2019-04-21T04:43:49.777Z,932.00
2019-04-21T04:44:55.521Z,972.00
2019-04-21T04:45:33.416Z,1284.00
2019-04-21T04:46:33.390Z,1360.00
2019-04-21T04:47:30.117Z,1440.00
2019-04-21T04:48:30.484Z,1520.00
2019-04-21T04:49:43.197Z,1604.00
2019-04-21T04:50:39.245Z,1688.00
2019-04-21T04:52:32.668Z,1852.00
2019-04-21T04:53:44.369Z,1936.00
2019-04-21T04:54:40.099Z,2020.00
2019-04-21T04:55:35.818Z,2104.00
2019-04-21T04:56:31.435Z,2188.00
2019-04-21T04:57:45.164Z,2268.00
2019-04-21T04:58:52.945Z,2352.00
2019-04-21T05:00:34.599Z,2512.00
2019-04-21T05:01:32.652Z,2600.00
2019-04-21T05:02:41.741Z,2692.00
2019-04-21T05:03:47.310Z,2792.00
2019-04-21T05:04:35.515Z,2884.00
2019-04-21T05:05:30.061Z,2980.00
2019-04-21T05:07:34.179Z,3160.00
2019-04-21T05:08:43.909Z,3244.00
2019-04-21T05:10:38.512Z,3428.00
2019-04-21T05:11:43.174Z,3524.00
2019-04-21T05:12:38.851Z,3616.00
2019-04-21T05:13:37.526Z,3704.00
2019-04-21T05:15:29.597Z,3856.00
2019-04-21T05:17:49.170Z,3968.00
2019-04-21T05:18:35.158Z,3964.00
2019-04-21T05:20:41.781Z,3876.00
2019-04-21T05:22:31.143Z,3960.00
2019-04-21T05:23:18.148Z,4000.00
2019-04-21T05:24:20.891Z,4036.00
2019-04-21T05:25:13.447Z,4052.00
2019-04-21T05:26:10.981Z,4080.00
2019-04-21T05:27:15.569Z,4124.00
2019-04-21T05:28:12.688Z,4176.00
2019-04-21T05:29:09.007Z,4228.00
2019-04-21T05:30:22.140Z,4292.00
2019-04-21T05:31:28.502Z,4356.00
2019-04-21T05:32:22.950Z,4416.00
2019-04-21T05:33:25.926Z,4480.00
2019-04-21T05:34:22.041Z,4544.00
2019-04-21T05:35:20.078Z,4620.00
2019-04-21T05:36:20.974Z,4696.00
2019-04-21T05:37:21.998Z,4768.00
2019-04-21T05:38:17.174Z,4844.00
2019-04-21T05:39:14.840Z,4916.00
2019-04-21T05:40:15.646Z,4996.00
2019-04-21T05:41:10.027Z,5068.00
2019-04-21T05:42:03.945Z,5144.00
2019-04-21T05:43:25.241Z,5212.00
2019-04-21T05:44:31.231Z,5284.00
2019-04-21T05:45:33.476Z,5344.00
2019-04-21T05:46:19.673Z,5408.00
2019-04-21T05:47:25.010Z,5472.00
2019-04-21T05:48:22.956Z,5532.00
2019-04-21T05:49:14.076Z,5592.00
2019-04-21T05:50:19.102Z,5652.00
2019-04-21T05:51:18.133Z,5708.00
2019-04-21T05:52:15.010Z,5764.00
2019-04-21T05:53:24.372Z,5824.00
2019-04-21T05:54:29.422Z,5884.00
2019-04-21T05:55:27.762Z,5964.00
2019-04-21T05:56:24.061Z,6048.00
2019-04-21T05:57:15.078Z,6100.00
2019-04-21T05:58:19.405Z,6148.00
2019-04-21T05:59:20.124Z,6232.00
2019-04-21T06:00:23.690Z,6400.00
2019-04-21T06:02:24.276Z,7012.00
2019-04-21T06:03:24.002Z,7056.00
2019-04-21T06:04:43.038Z,7328.00
2019-04-21T06:06:27.582Z,8572.00
2019-04-21T06:07:23.031Z,9436.00
2019-04-21T06:08:17.934Z,10224.00
2019-04-21T06:09:18.995Z,9732.00
2019-04-21T06:10:20.369Z,9628.00
2019-04-21T06:12:23.572Z,10056.00
2019-04-21T06:13:26.570Z,11036.00
2019-04-21T06:14:21.634Z,12292.00
2019-04-21T06:15:19.807Z,12612.00
2019-04-21T06:16:22.350Z,12180.00
2019-04-21T06:17:23.736Z,12596.00
2019-04-21T06:18:27.243Z,12888.00
2019-04-21T06:19:23.663Z,13148.00
2019-04-21T06:20:21.170Z,13920.00
2019-04-21T06:21:16.154Z,14880.00
2019-04-21T06:22:19.419Z,13856.00
2019-04-21T06:23:25.119Z,13044.00
2019-04-21T06:24:27.003Z,11120.00
2019-04-21T06:25:41.011Z,8960.00
2019-04-21T06:27:27.474Z,8252.00
2019-04-21T06:28:22.614Z,8372.00
2019-04-21T06:29:23.842Z,8364.00
2019-04-21T06:30:19.340Z,8392.00
2019-04-21T06:31:42.411Z,8312.00
2019-04-21T06:32:30.379Z,8860.00
2019-04-21T06:33:19.671Z,8784.00
2019-04-21T06:34:24.422Z,8672.00
2019-04-21T06:35:52.903Z,8780.00
2019-04-21T06:38:28.323Z,9128.00
2019-04-21T06:39:25.186Z,9240.00
2019-04-21T06:41:29.762Z,9336.00
2019-04-21T06:42:18.574Z,9444.00
2019-04-21T06:43:41.960Z,9524.00
2019-04-21T06:44:16.750Z,9544.00
2019-04-21T06:45:25.619Z,9632.00
2019-04-21T06:46:26.464Z,9748.00
2019-04-21T06:47:32.528Z,9852.00
2019-04-21T06:48:24.766Z,9964.00
2019-04-21T06:49:17.214Z,10060.00
2019-04-21T06:50:26.593Z,10164.00
2019-04-21T06:51:24.068Z,10284.00
2019-04-21T06:52:41.934Z,10508.00
2019-04-21T06:53:32.824Z,11064.00
2019-04-21T06:54:23.837Z,11308.00
2019-04-21T06:55:22.448Z,11616.00
2019-04-21T06:56:23.600Z,11728.00
2019-04-21T06:57:26.075Z,11728.00
2019-04-21T06:58:20.807Z,11724.00
2019-04-21T06:59:19.220Z,11836.00
2019-04-21T07:00:18.552Z,11896.00
2019-04-21T07:01:26.519Z,11920.00
2019-04-21T07:02:36.174Z,12044.00
2019-04-21T07:03:29.420Z,12172.00
2019-04-21T07:05:19.991Z,12960.00
2019-04-21T07:06:23.717Z,13312.00
2019-04-21T07:07:18.149Z,12156.00
2019-04-21T07:08:29.025Z,11836.00
2019-04-21T07:09:28.038Z,12380.00
2019-04-21T07:10:24.194Z,17760.00
2019-04-21T07:11:21.668Z,21376.00
2019-04-21T07:12:18.545Z,21792.00
2019-04-21T07:13:15.297Z,21088.00
2019-04-21T07:15:19.518Z,23584.00
2019-04-21T07:16:23.470Z,25696.00
2019-04-21T07:17:24.730Z,28608.00
2019-04-21T07:18:19.163Z,29344.00
2019-04-21T07:20:19.753Z,30592.00
2019-04-21T07:21:23.443Z,31584.00
2019-04-21T07:23:26.110Z,33888.00
2019-04-21T07:24:35.503Z,34688.00
2019-04-21T07:25:23.867Z,34272.00
2019-04-21T07:26:22.292Z,34688.00
2019-04-21T07:27:24.022Z,35552.00
2019-04-21T07:28:19.266Z,36800.00
2019-04-21T07:29:20.441Z,37728.00
2019-04-21T07:30:20.802Z,38400.00
2019-04-21T07:31:23.239Z,38560.00
2019-04-21T07:32:15.318Z,39936.00
2019-04-21T07:33:41.187Z,39936.00
2019-04-21T07:35:20.722Z,41952.00
2019-04-21T07:36:21.387Z,43520.00
2019-04-21T07:37:20.802Z,42976.00
2019-04-21T07:38:16.565Z,42720.00
2019-04-21T07:39:18.436Z,43296.00
2019-04-21T07:40:17.721Z,43296.00
2019-04-21T07:41:09.448Z,40032.00
2019-04-21T07:42:13.459Z,36736.00
2019-04-21T07:43:15.219Z,33952.00
2019-04-21T07:44:15.644Z,25984.00
2019-04-21T07:45:13.028Z,21440.00
2019-04-21T07:46:10.198Z,27072.00
2019-04-21T07:47:15.767Z,27616.00
2019-04-21T07:48:18.770Z,26240.00
2019-04-21T07:49:19.115Z,28288.00
2019-04-21T07:50:14.858Z,26848.00
2019-04-21T07:51:17.245Z,25248.00
2019-04-21T07:52:25.666Z,24608.00
2019-04-21T07:53:22.290Z,26592.00
2019-04-21T07:54:23.254Z,26720.00
2019-04-21T07:56:07.445Z,23904.00
2019-04-21T07:57:21.331Z,23328.00
2019-04-21T07:58:14.569Z,21792.00
2019-04-21T07:59:20.346Z,21408.00
2019-04-21T08:01:17.995Z,19392.00
2019-04-21T08:02:17.048Z,19008.00
2019-04-21T08:03:19.302Z,18880.00
2019-04-21T08:04:38.010Z,18784.00
2019-04-21T08:05:35.297Z,18752.00
2019-04-21T08:06:20.480Z,18816.00
2019-04-21T08:07:24.479Z,18848.00
2019-04-21T08:08:11.608Z,18944.00
2019-04-21T08:10:15.569Z,19232.00
2019-04-21T08:11:15.101Z,19296.00
2019-04-21T08:12:15.769Z,19392.00
2019-04-21T08:13:25.168Z,19520.00
2019-04-21T08:14:17.023Z,19616.00
2019-04-21T08:15:24.947Z,19680.00
2019-04-21T08:16:20.066Z,19840.00
2019-04-21T08:17:19.079Z,19904.00
2019-04-21T08:18:20.412Z,20064.00
2019-04-21T08:19:18.769Z,20224.00
2019-04-21T08:20:15.693Z,20320.00
2019-04-21T08:21:10.725Z,20448.00
2019-04-21T08:22:15.799Z,20512.00
2019-04-21T08:23:20.086Z,20608.00
2019-04-21T08:24:16.285Z,20736.00
2019-04-21T08:25:15.131Z,20768.00
2019-04-21T08:26:15.583Z,20864.00
2019-04-21T08:27:22.421Z,20928.00
2019-04-21T08:28:20.469Z,20896.00
2019-04-21T08:29:25.721Z,20832.00
2019-04-21T08:30:22.663Z,20768.00
2019-04-21T08:31:25.890Z,20832.00
2019-04-21T08:32:15.481Z,20800.00
2019-04-21T08:33:25.110Z,20768.00
2019-04-21T08:34:24.174Z,20768.00
2019-04-21T08:35:49.687Z,20832.00
2019-04-21T08:37:18.295Z,21216.00
2019-04-21T08:38:13.578Z,21312.00
2019-04-21T08:39:19.984Z,21344.00
2019-04-21T08:41:14.932Z,21152.00
2019-04-21T08:42:16.899Z,21056.00
2019-04-21T08:43:21.670Z,20896.00
2019-04-21T08:44:24.337Z,20832.00
2019-04-21T08:45:22.671Z,20864.00
2019-04-21T08:46:20.268Z,20800.00
2019-04-21T08:47:22.074Z,20704.00
2019-04-21T08:48:20.637Z,20672.00
2019-04-21T08:49:15.607Z,20704.00
2019-04-21T08:50:14.914Z,20640.00
2019-04-21T08:51:30.173Z,20640.00
2019-04-21T08:52:28.473Z,20640.00
2019-04-21T08:53:13.775Z,20608.00
2019-04-21T08:54:21.564Z,20672.00
2019-04-21T08:56:18.212Z,20864.00
2019-04-21T08:57:20.179Z,20864.00
2019-04-21T08:58:25.318Z,20896.00
2019-04-21T08:59:19.015Z,20896.00
2019-04-21T09:00:20.365Z,20992.00
2019-04-21T09:01:19.189Z,21216.00
2019-04-21T09:02:16.776Z,21536.00
2019-04-21T09:03:19.566Z,21632.00
2019-04-21T09:04:13.333Z,21760.00
2019-04-21T09:05:18.946Z,21760.00
2019-04-21T09:06:22.228Z,21888.00
2019-04-21T09:07:21.317Z,21792.00
2019-04-21T09:08:19.888Z,21920.00
2019-04-21T09:09:17.914Z,22144.00
2019-04-21T09:10:17.315Z,22528.00
2019-04-21T09:11:11.450Z,23040.00
2019-04-21T09:12:17.690Z,23968.00
2019-04-21T09:13:10.149Z,25088.00
2019-04-21T09:14:14.720Z,30656.00
2019-04-21T09:15:13.882Z,44032.00
2019-04-21T09:16:08.489Z,49696.00
2019-04-21T09:17:10.844Z,49056.00
2019-04-21T09:18:10.236Z,50016.00
2019-04-21T09:19:20.195Z,48576.00
2019-04-21T09:20:17.236Z,39072.00
2019-04-21T09:21:19.442Z,33440.00
2019-04-21T09:22:12.877Z,46720.00
2019-04-21T09:23:13.370Z,58048.00
2019-04-21T09:24:20.999Z,60928.00
2019-04-21T09:26:18.592Z,64640.00
2019-04-21T09:27:15.866Z,66048.00
2019-04-21T09:28:14.035Z,65344.00
2019-04-21T09:29:04.391Z,65664.00
2019-04-21T09:30:01.252Z,69024.00
2019-04-21T09:31:00.939Z,74208.00
2019-04-21T09:31:58.038Z,72384.00
2019-04-21T09:32:58.142Z,71200.00
2019-04-21T09:34:00.300Z,69024.00
2019-04-21T09:34:55.972Z,68384.00
2019-04-21T09:36:01.256Z,68800.00
2019-04-21T09:37:12.710Z,69888.00
2019-04-21T09:38:03.948Z,69216.00
2019-04-21T09:39:03.438Z,64256.00
2019-04-21T09:39:57.819Z,45792.00
2019-04-21T09:40:56.499Z,43328.00
2019-04-21T09:41:59.132Z,65184.00
2019-04-21T09:43:02.420Z,72832.00
2019-04-21T09:43:57.459Z,73280.00
2019-04-21T09:44:59.468Z,75360.00
2019-04-21T09:45:56.715Z,74048.00
2019-04-21T09:46:59.687Z,75680.00
2019-04-21T09:48:02.693Z,75968.00
2019-04-21T09:49:01.932Z,75712.00
2019-04-21T09:49:56.303Z,74560.00
2019-04-21T09:50:55.127Z,69888.00
2019-04-21T09:51:55.248Z,71040.00
2019-04-21T09:53:00.262Z,61824.00
2019-04-21T09:54:01.803Z,46176.00
2019-04-21T09:55:04.213Z,50304.00
2019-04-21T09:55:59.734Z,71360.00
2019-04-21T09:57:01.607Z,72640.00
2019-04-21T09:58:06.956Z,70080.00
2019-04-21T09:59:04.080Z,69536.00
2019-04-21T10:00:00.924Z,64160.00
2019-04-21T10:01:07.486Z,57152.00
2019-04-21T10:02:06.507Z,60576.00
2019-04-21T10:03:02.946Z,61856.00
2019-04-21T10:04:00.049Z,59072.00
2019-04-21T10:04:55.716Z,51552.00
2019-04-21T10:05:54.662Z,45408.00
2019-04-21T10:06:54.633Z,54336.00
2019-04-21T10:07:55.244Z,58080.00
2019-04-21T10:08:58.364Z,58880.00
2019-04-21T10:09:55.634Z,48768.00
2019-04-21T10:10:54.741Z,43680.00
2019-04-21T10:11:54.909Z,41088.00
2019-04-21T10:12:54.611Z,43872.00
2019-04-21T10:13:55.149Z,40800.00
2019-04-21T10:14:55.302Z,35488.00
2019-04-21T10:15:54.549Z,33472.00
2019-04-21T10:16:57.231Z,33440.00
2019-04-21T10:17:54.528Z,35744.00
2019-04-21T10:18:54.800Z,39680.00
2019-04-21T10:19:55.084Z,41696.00
2019-04-21T10:20:54.746Z,43936.00
2019-04-21T10:21:54.482Z,38144.00
2019-04-21T10:22:55.261Z,35200.00
2019-04-21T10:23:54.518Z,34496.00
2019-04-21T10:24:54.475Z,34912.00
2019-04-21T10:25:54.729Z,35776.00
2019-04-21T10:26:55.416Z,36704.00
2019-04-21T10:27:54.938Z,35744.00
2019-04-21T10:28:58.618Z,33184.00
2019-04-21T10:29:56.115Z,32384.00
2019-04-21T10:30:54.405Z,33152.00
2019-04-21T10:31:54.612Z,32608.00
2019-04-21T10:32:54.398Z,31392.00
2019-04-21T10:33:54.561Z,30912.00
2019-04-21T10:34:55.113Z,30816.00
2019-04-21T10:35:55.163Z,31360.00
2019-04-21T10:36:55.331Z,31488.00
2019-04-21T10:38:10.387Z,31456.00
2019-04-21T10:38:57.130Z,33184.00
2019-04-21T10:39:55.715Z,35008.00
2019-04-21T10:40:54.289Z,31936.00
2019-04-21T10:41:55.255Z,30720.00
2019-04-21T10:42:54.273Z,29216.00
2019-04-21T10:43:55.494Z,28320.00
2019-04-21T10:44:54.831Z,28096.00
2019-04-21T10:45:54.876Z,28416.00
2019-04-21T10:46:55.897Z,28672.00
2019-04-21T10:47:54.841Z,29248.00
2019-04-21T10:48:54.923Z,29728.00
2019-04-21T10:49:54.928Z,30912.00
2019-04-21T10:50:54.938Z,32064.00
2019-04-21T10:51:55.002Z,34080.00
2019-04-21T10:52:55.238Z,33920.00
2019-04-21T10:53:54.659Z,36864.00
2019-04-21T10:55:12.834Z,39328.00
2019-04-21T10:56:09.747Z,40064.00
2019-04-21T10:56:55.134Z,44576.00
2019-04-21T10:57:54.108Z,48768.00
2019-04-21T10:58:54.243Z,52768.00
2019-04-21T10:59:56.115Z,58944.00
2019-04-21T11:00:54.177Z,66144.00
2019-04-21T11:01:54.879Z,69824.00
2019-04-21T11:02:54.828Z,77408.00
2019-04-21T11:03:55.115Z,82208.00
2019-04-21T11:04:54.521Z,83776.00
2019-04-21T11:05:54.637Z,90912.00
2019-04-21T11:06:57.927Z,88608.00
2019-04-21T11:08:07.651Z,92960.00
2019-04-21T11:08:57.201Z,94624.00
2019-04-21T11:09:54.072Z,97056.00
2019-04-21T11:10:54.133Z,96096.00
2019-04-21T11:11:53.962Z,96192.00
2019-04-21T11:12:54.705Z,93792.00
2019-04-21T11:13:54.870Z,93824.00
2019-04-21T11:14:53.989Z,94208.00
2019-04-21T11:15:55.191Z,93856.00
2019-04-21T11:16:54.806Z,95200.00
2019-04-21T11:17:55.460Z,91904.00
2019-04-21T11:18:53.907Z,91680.00
2019-04-21T11:19:54.848Z,92192.00
2019-04-21T11:20:54.923Z,92768.00
2019-04-21T11:21:54.653Z,92320.00
2019-04-21T11:22:53.853Z,92384.00
2019-04-21T11:23:54.271Z,91040.00
2019-04-21T11:24:53.840Z,91360.00
2019-04-21T11:25:53.974Z,89568.00
2019-04-21T11:26:53.946Z,91200.00
2019-04-21T11:27:55.229Z,91264.00
2019-04-21T11:28:54.935Z,92192.00
2019-04-21T11:29:53.801Z,90080.00
2019-04-21T11:30:54.872Z,92480.00
2019-04-21T11:31:54.840Z,91488.00
2019-04-21T11:32:55.173Z,97376.00
2019-04-21T11:33:53.760Z,98240.00
2019-04-21T11:34:54.837Z,98432.00
2019-04-21T11:35:54.891Z,98816.00
2019-04-21T11:36:54.378Z,97152.00
2019-04-21T11:38:04.609Z,93792.00
2019-04-21T11:39:09.795Z,93248.00
2019-04-21T11:40:00.125Z,89568.00
2019-04-21T11:40:55.839Z,91872.00
2019-04-21T11:41:54.061Z,91040.00
2019-04-21T11:42:53.711Z,95040.00
2019-04-21T11:43:54.929Z,95232.00
2019-04-21T11:44:53.647Z,94016.00
2019-04-21T11:45:54.766Z,91968.00
2019-04-21T11:46:54.395Z,90592.00
2019-04-21T11:47:54.465Z,90432.00
2019-04-21T11:48:54.729Z,92064.00
2019-04-21T11:49:54.859Z,92160.00
2019-04-21T11:50:55.056Z,91808.00
2019-04-21T11:51:53.616Z,90176.00
2019-04-21T11:52:54.841Z,88992.00
2019-04-21T11:53:54.867Z,89920.00
2019-04-21T11:54:54.976Z,89280.00
2019-04-21T11:55:55.156Z,91488.00
2019-04-21T11:56:54.807Z,91840.00
2019-04-21T11:57:55.226Z,91456.00
2019-04-21T11:58:54.083Z,92192.00
2019-04-21T11:59:53.609Z,89760.00
2019-04-21T12:00:53.906Z,86976.00
2019-04-21T12:01:54.046Z,80672.00
2019-04-21T12:02:53.467Z,77536.00
2019-04-21T12:03:53.763Z,76704.00
2019-04-21T12:04:53.763Z,75264.00
2019-04-21T12:05:53.442Z,70784.00
2019-04-21T12:06:55.588Z,66976.00
2019-04-21T12:07:53.479Z,66144.00
2019-04-21T12:08:57.558Z,63168.00
2019-04-21T12:09:55.509Z,60416.00
2019-04-21T12:10:53.562Z,62112.00
2019-04-21T12:11:53.765Z,61312.00
2019-04-21T12:12:53.381Z,58752.00
2019-04-21T12:13:54.265Z,57344.00
2019-04-21T12:14:54.238Z,60320.00
2019-04-21T12:15:54.708Z,59936.00
2019-04-21T12:16:53.347Z,56992.00
2019-04-21T12:17:54.297Z,54944.00
2019-04-21T12:18:54.574Z,54368.00
2019-04-21T12:19:54.514Z,53984.00
2019-04-21T12:20:53.743Z,52896.00
2019-04-21T12:22:04.979Z,51712.00
2019-04-21T12:22:54.905Z,52704.00
2019-04-21T12:23:54.390Z,55136.00
2019-04-21T12:24:53.388Z,53344.00
2019-04-21T12:25:53.259Z,49152.00
2019-04-21T12:26:53.886Z,49600.00
2019-04-21T12:27:54.146Z,50240.00
2019-04-21T12:28:53.604Z,47936.00
2019-04-21T12:29:53.530Z,49408.00
2019-04-21T12:30:53.766Z,48800.00
2019-04-21T12:31:53.895Z,50080.00
2019-04-21T12:32:53.907Z,53408.00
2019-04-21T12:33:54.023Z,57024.00
2019-04-21T12:34:53.866Z,48864.00
2019-04-21T12:35:53.747Z,48576.00
2019-04-21T12:36:53.162Z,46208.00
2019-04-21T12:37:53.237Z,47072.00
2019-04-21T12:38:57.353Z,45472.00
2019-04-21T12:39:54.742Z,41824.00
2019-04-21T12:40:53.095Z,45760.00
2019-04-21T12:41:54.219Z,46080.00
2019-04-21T12:42:53.076Z,45568.00
2019-04-21T12:43:53.096Z,42368.00
2019-04-21T12:44:53.067Z,39040.00
2019-04-21T12:45:53.835Z,33760.00
2019-04-21T12:46:54.037Z,35456.00
2019-04-21T12:47:53.926Z,36512.00
2019-04-21T12:48:53.824Z,36160.00
2019-04-21T12:49:54.043Z,32288.00
2019-04-21T12:50:54.218Z,32352.00
2019-04-21T12:51:53.517Z,35104.00
2019-04-21T12:52:53.640Z,30208.00
2019-04-21T12:53:54.047Z,32608.00
2019-04-21T12:54:53.548Z,27488.00
2019-04-21T12:55:53.814Z,23488.00
2019-04-21T12:56:53.761Z,22144.00
2019-04-21T12:57:53.206Z,21792.00
2019-04-21T12:58:53.288Z,21696.00
2019-04-21T12:59:52.998Z,21568.00
2019-04-21T13:00:52.897Z,21408.00
2019-04-21T13:01:52.911Z,21376.00
2019-04-21T13:02:54.033Z,21344.00
2019-04-21T13:03:52.862Z,21312.00
2019-04-21T13:04:54.221Z,21312.00
2019-04-21T13:05:53.755Z,21312.00
2019-04-21T13:06:52.855Z,21312.00
2019-04-21T13:07:53.366Z,21344.00
2019-04-21T13:08:59.430Z,21344.00
2019-04-21T13:09:54.594Z,21376.00
2019-04-21T13:10:53.922Z,21408.00
2019-04-21T13:11:53.066Z,21408.00
2019-04-21T13:12:54.145Z,21408.00
2019-04-21T13:13:53.661Z,21472.00
2019-04-21T13:14:55.652Z,21536.00
2019-04-21T13:15:53.492Z,21600.00
2019-04-21T13:16:52.765Z,21664.00
2019-04-21T13:17:52.727Z,21728.00